»·PEaware :: 3A-MCH MWCR-KSAV

3A-MCH :: MWCR-KSAV

FLIGHT INFORMATION

Flight Status: Arrived
Operator: Privately registered:
Monaco
More flights under this callsign
Pilot: Timothy W. (9658)
Aircraft: ECLIPSE 500
(EA50)
More flights by this aircraft type
Origin: MWCR Roberts Intl
Cayman Islands
Destination: KSAV Savannah Intl
United States
More flights between these airports :: More routes between these airports
Route: RIKEL2 RIKEL UG877 UCL UG448 IKBIX Y183 PEAKY CYY ORL OMN J79 MILIE SAV
File this flight plan on PilotEdge
Remarks:
Altitude:
(Current/Filed)
41,000ft
Speed:
(Current/Filed)
333kts
Departed: 05-Aug-18 12:08 PM
Arrived: 05-Aug-18 02:51 PM
Distance/Time
Traveled:
770nm/2:42
Distance/Time
To Go:
Arrived

Flight Plot

Page will automatically refresh every two minutes.

Flight plan parsing failed; only flown route is shown


Map Options




Map Legend


Flown Route
Filed Route
Departure Airport
Arrival Airport
Navaid (VOR, NDB)
Fix

Horizontal Profiles

Position Reports

Time Latitude Longitude Heading Altitude Ground
Speed
05-Aug-18 12:01 19.293645 -81.361749 266 19ft 0kts
05-Aug-18 12:02 19.293645 -81.361749 266 19ft 0kts
05-Aug-18 12:03 19.293645 -81.361749 266 19ft 0kts
05-Aug-18 12:04 19.293645 -81.361749 266 19ft 0kts
05-Aug-18 12:05 19.293292 -81.363206 226 19ft 15kts
05-Aug-18 12:06 19.290872 -81.365962 255 18ft 19kts
05-Aug-18 12:07 19.290539 -81.367089 75 17ft 0kts
05-Aug-18 12:08 19.290539 -81.367089 75 17ft 0kts
05-Aug-18 12:09 19.295997 -81.342793 78 540ft 146kts
05-Aug-18 12:10 19.323105 -81.313694 356 2941ft 160kts
05-Aug-18 12:11 19.366863 -81.323368 351 5176ft 166kts
05-Aug-18 12:12 19.410507 -81.316748 25 7269ft 166kts
05-Aug-18 12:13 19.453394 -81.297682 26 9233ft 171kts
05-Aug-18 12:14 19.497548 -81.277937 26 11066ft 176kts
05-Aug-18 12:15 19.542856 -81.257133 26 12786ft 181kts
05-Aug-18 12:16 19.589318 -81.235502 26 14404ft 185kts
05-Aug-18 12:17 19.636635 -81.213502 26 15911ft 189kts
05-Aug-18 12:18 19.685265 -81.190896 26 17333ft 193kts
05-Aug-18 12:19 19.734764 -81.167876 26 18662ft 197kts
05-Aug-18 12:20 19.785378 -81.144323 26 19914ft 201kts
05-Aug-18 12:21 19.836716 -81.120419 26 21086ft 205kts
05-Aug-18 12:22 19.889392 -81.095880 26 22212ft 207kts
05-Aug-18 12:23 19.942474 -81.071126 25 23258ft 211kts
05-Aug-18 12:24 19.996433 -81.045949 25 24259ft 213kts
05-Aug-18 12:25 20.050608 -81.020736 25 25193ft 215kts
05-Aug-18 12:26 20.105897 -80.995032 25 26089ft 218kts
05-Aug-18 12:27 20.161487 -80.969177 25 26930ft 220kts
05-Aug-18 12:28 20.219153 -80.956893 342 27678ft 229kts
05-Aug-18 12:29 20.279329 -80.980962 342 28402ft 232kts
05-Aug-18 12:30 20.339962 -81.005690 341 29092ft 235kts
05-Aug-18 12:31 20.401452 -81.030972 341 29746ft 239kts
05-Aug-18 12:32 20.463360 -81.056521 341 30355ft 242kts
05-Aug-18 12:33 20.526847 -81.082758 341 30951ft 245kts
05-Aug-18 12:34 20.589847 -81.108829 340 31506ft 248kts
05-Aug-18 12:35 20.654385 -81.135573 341 32053ft 251kts
05-Aug-18 12:36 20.719599 -81.162629 340 32585ft 253kts
05-Aug-18 12:37 20.785522 -81.189996 341 33090ft 255kts
05-Aug-18 12:38 20.851468 -81.217393 340 33570ft 257kts
05-Aug-18 12:39 20.918396 -81.245228 340 34026ft 259kts
05-Aug-18 12:40 20.985645 -81.273241 340 34471ft 260kts
05-Aug-18 12:41 21.053005 -81.301324 341 34908ft 262kts
05-Aug-18 12:42 21.121811 -81.330015 341 35103ft 272kts
05-Aug-18 12:43 21.194285 -81.360251 341 35102ft 289kts
05-Aug-18 12:44 21.270734 -81.392207 341 35102ft 302kts
05-Aug-18 12:45 21.350104 -81.425409 341 35101ft 314kts
05-Aug-18 12:46 21.432932 -81.460113 341 35102ft 323kts
05-Aug-18 12:47 21.517634 -81.495648 340 35101ft 330kts
05-Aug-18 12:48 21.604141 -81.529866 357 35106ft 332kts
05-Aug-18 12:49 21.695810 -81.520886 8 35102ft 334kts
05-Aug-18 12:50 21.788150 -81.509765 8 35237ft 334kts
05-Aug-18 12:51 21.880117 -81.498396 8 35433ft 332kts
05-Aug-18 12:52 21.971210 -81.487059 8 35633ft 331kts
05-Aug-18 12:53 22.062315 -81.475694 8 35831ft 329kts
05-Aug-18 12:54 22.152995 -81.464360 8 36029ft 328kts
05-Aug-18 12:55 22.243273 -81.453050 8 36223ft 327kts
05-Aug-18 12:56 22.332333 -81.441894 8 36416ft 326kts
05-Aug-18 12:57 22.422692 -81.430548 8 36617ft 326kts
05-Aug-18 12:58 22.512445 -81.419269 8 36809ft 325kts
05-Aug-18 12:59 22.600378 -81.408210 8 36994ft 324kts
05-Aug-18 13:00 22.689883 -81.397000 8 37194ft 324kts
05-Aug-18 13:01 22.778585 -81.385989 8 37394ft 323kts
05-Aug-18 13:02 22.867529 -81.374958 8 37592ft 322kts
05-Aug-18 13:03 22.956217 -81.363955 8 37795ft 321kts
05-Aug-18 13:04 23.044614 -81.352965 8 37992ft 320kts
05-Aug-18 13:05 23.132372 -81.342028 9 38180ft 318kts
05-Aug-18 13:06 23.219965 -81.331104 9 38373ft 316kts
05-Aug-18 13:07 23.307035 -81.320232 8 38567ft 315kts
05-Aug-18 13:08 23.393356 -81.309446 8 38752ft 313kts
05-Aug-18 13:09 23.479609 -81.298654 9 38933ft 312kts
05-Aug-18 13:10 23.565552 -81.287881 8 39115ft 311kts
05-Aug-18 13:11 23.650759 -81.277192 9 39316ft 310kts
05-Aug-18 13:12 23.735185 -81.266580 9 39513ft 309kts
05-Aug-18 13:13 23.820239 -81.255883 8 39712ft 307kts
05-Aug-18 13:14 23.905318 -81.245164 9 39902ft 306kts
05-Aug-18 13:15 23.989668 -81.234526 8 40094ft 305kts
05-Aug-18 13:16 24.072880 -81.222695 9 40282ft 303kts
05-Aug-18 13:17 24.156533 -81.210658 9 40470ft 302kts
05-Aug-18 13:18 24.239452 -81.198724 9 40654ft 301kts
05-Aug-18 13:19 24.321994 -81.186831 9 40839ft 299kts
05-Aug-18 13:20 24.404295 -81.174955 9 41027ft 298kts
05-Aug-18 13:21 24.486368 -81.163099 9 41153ft 299kts
05-Aug-18 13:22 24.568726 -81.151181 9 41154ft 303kts
05-Aug-18 13:23 24.651157 -81.173005 344 41154ft 314kts
05-Aug-18 13:24 24.733740 -81.205416 343 41156ft 318kts
05-Aug-18 13:25 24.817484 -81.238677 343 41155ft 322kts
05-Aug-18 13:26 24.901620 -81.272238 343 41157ft 326kts
05-Aug-18 13:27 24.987354 -81.306479 343 41155ft 329kts
05-Aug-18 13:28 25.073636 -81.340990 342 41154ft 332kts
05-Aug-18 13:29 25.160002 -81.375642 341 41153ft 334kts
05-Aug-18 13:30 25.246346 -81.410335 341 41154ft 337kts
05-Aug-18 13:31 25.335845 -81.446336 341 41158ft 338kts
05-Aug-18 13:32 25.424091 -81.481885 342 41168ft 340kts
05-Aug-18 13:33 25.512314 -81.517477 342 41171ft 341kts
05-Aug-18 13:34 25.601927 -81.553688 341 41175ft 343kts
05-Aug-18 13:35 25.691204 -81.589828 341 41175ft 345kts
05-Aug-18 13:36 25.781192 -81.626308 342 41176ft 346kts
05-Aug-18 13:37 25.871437 -81.662948 341 41173ft 347kts
05-Aug-18 13:38 25.961940 -81.699758 342 41173ft 348kts
05-Aug-18 13:39 26.052665 -81.736715 341 41173ft 349kts
05-Aug-18 13:40 26.143868 -81.773363 349 41163ft 348kts
05-Aug-18 13:41 26.237772 -81.762155 10 41164ft 345kts
05-Aug-18 13:42 26.332201 -81.745540 10 41160ft 346kts
05-Aug-18 13:43 26.426853 -81.728421 10 41155ft 346kts
05-Aug-18 13:44 26.521305 -81.711210 10 41153ft 347kts
05-Aug-18 13:45 26.616328 -81.693850 10 41156ft 347kts
05-Aug-18 13:46 26.711567 -81.676409 10 41156ft 348kts
05-Aug-18 13:47 26.805532 -81.659175 10 41159ft 348kts
05-Aug-18 13:48 26.900663 -81.641715 10 41162ft 349kts
05-Aug-18 13:49 26.996585 -81.624076 11 41174ft 350kts
05-Aug-18 13:50 27.092010 -81.606435 11 41183ft 353kts
05-Aug-18 13:51 27.189580 -81.588429 10 41184ft 356kts
05-Aug-18 13:52 27.287115 -81.570377 10 41183ft 358kts
05-Aug-18 13:53 27.385467 -81.552149 10 41185ft 360kts
05-Aug-18 13:54 27.484099 -81.533840 10 41184ft 362kts
05-Aug-18 13:55 27.582732 -81.515486 11 41185ft 363kts
05-Aug-18 13:56 27.681931 -81.496995 10 41190ft 364kts
05-Aug-18 13:57 27.781469 -81.478416 10 41192ft 365kts
05-Aug-18 13:58 27.881303 -81.459741 10 41192ft 366kts
05-Aug-18 13:59 27.981649 -81.440890 9 41189ft 367kts
05-Aug-18 14:00 28.082186 -81.422052 10 41192ft 369kts
05-Aug-18 14:01 28.183157 -81.403066 10 41192ft 370kts
05-Aug-18 14:02 28.284636 -81.383937 10 41192ft 372kts
05-Aug-18 14:03 28.386765 -81.364652 10 41193ft 373kts
05-Aug-18 14:04 28.488546 -81.345392 10 41193ft 374kts
05-Aug-18 14:05 28.589021 -81.321735 15 41191ft 374kts
05-Aug-18 14:06 28.689426 -81.292289 15 41190ft 375kts
05-Aug-18 14:07 28.789458 -81.263103 15 41191ft 375kts
05-Aug-18 14:08 28.889957 -81.233762 15 41195ft 375kts
05-Aug-18 14:09 28.988328 -81.205000 15 41202ft 376kts
05-Aug-18 14:10 29.088960 -81.175521 15 41211ft 375kts
05-Aug-18 14:11 29.189599 -81.145954 15 41217ft 375kts
05-Aug-18 14:12 29.273738 -81.121207 15 41220ft 374kts
05-Aug-18 14:13 29.394011 -81.115286 359 41218ft 375kts
05-Aug-18 14:14 29.478693 -81.117615 359 41218ft 375kts
05-Aug-18 14:15 29.583849 -81.120677 359 41220ft 375kts
05-Aug-18 14:16 29.705196 -81.124271 359 41227ft 375kts
05-Aug-18 14:17 29.791908 -81.126841 359 41236ft 375kts
05-Aug-18 14:18 29.895715 -81.129932 359 41235ft 375kts
05-Aug-18 14:19 30.017184 -81.133550 359 40874ft 386kts
05-Aug-18 14:20 30.109358 -81.136292 359 39634ft 415kts
05-Aug-18 14:21 30.225178 -81.139763 359 38169ft 430kts
05-Aug-18 14:22 30.346429 -81.143400 359 36650ft 431kts
05-Aug-18 14:23 30.464836 -81.146962 359 35167ft 431kts
05-Aug-18 14:24 30.583036 -81.150537 359 33677ft 422kts
05-Aug-18 14:25 30.699138 -81.154078 359 32174ft 416kts
05-Aug-18 14:26 30.812153 -81.157535 359 30674ft 405kts
05-Aug-18 14:27 30.922781 -81.160959 0 29166ft 393kts
05-Aug-18 14:28 31.028903 -81.164192 0 27612ft 373kts
05-Aug-18 14:29 31.129585 -81.167218 0 25606ft 358kts
05-Aug-18 14:30 31.226911 -81.170193 0 23602ft 347kts
05-Aug-18 14:31 31.321278 -81.173093 359 21674ft 336kts
05-Aug-18 14:32 31.413370 -81.175939 359 20164ft 330kts
05-Aug-18 14:33 31.503101 -81.178710 359 18661ft 322kts
05-Aug-18 14:34 31.590343 -81.181403 359 17164ft 316kts
05-Aug-18 14:35 31.671710 -81.183929 359 15155ft 265kts
05-Aug-18 14:36 31.739662 -81.186029 359 13172ft 236kts
05-Aug-18 14:37 31.802656 -81.189131 342 11166ft 224kts
05-Aug-18 14:38 31.847088 -81.236630 318 9517ft 210kts
05-Aug-18 14:39 31.888174 -81.282179 319 8015ft 200kts
05-Aug-18 14:40 31.925845 -81.323229 319 7145ft 170kts
05-Aug-18 14:41 31.960221 -81.360396 318 6442ft 166kts
05-Aug-18 14:42 31.994151 -81.397027 318 5753ft 165kts
05-Aug-18 14:43 32.027809 -81.433352 318 5153ft 164kts
05-Aug-18 14:44 32.067117 -81.453343 0 4478ft 162kts
05-Aug-18 14:45 32.111789 -81.453412 0 3676ft 160kts
05-Aug-18 14:46 32.129091 -81.412661 87 2905ft 160kts
05-Aug-18 14:47 32.129678 -81.361738 90 2125ft 158kts
05-Aug-18 14:48 32.129465 -81.314749 90 1618ft 122kts
05-Aug-18 14:49 32.129196 -81.280754 90 1069ft 104kts
05-Aug-18 14:50 32.128906 -81.246883 90 521ft 103kts
05-Aug-18 14:51 32.128654 -81.213372 92 16ft 92kts
05-Aug-18 14:52 32.127518 -81.203071 88 30ft 0kts
05-Aug-18 14:53 32.127520 -81.202583 89 31ft 15kts
05-Aug-18 14:54 32.125968 -81.198197 180 39ft 0kts
05-Aug-18 14:55 32.123763 -81.198115 177 37ft 24kts
05-Aug-18 14:56 32.119384 -81.197854 170 29ft 16kts
05-Aug-18 14:57 32.117325 -81.194173 163 27ft 9kts
05-Aug-18 14:58 32.117276 -81.194159 166 27ft 0kts
05-Aug-18 14:59 32.117276 -81.194159 166 27ft 0kts
05-Aug-18 15:00 32.117276 -81.194159 166 27ft 0kts
05-Aug-18 15:01 32.117276 -81.194159 166 27ft 0kts
05-Aug-18 15:02 32.117276 -81.194159 166 27ft 0kts
05-Aug-18 15:03 32.117276 -81.194159 166 27ft 0kts
05-Aug-18 15:04 32.117276 -81.194159 166 27ft 0kts
05-Aug-18 15:05 32.117276 -81.194159 166 27ft 0kts
05-Aug-18 15:06 32.117276 -81.194159 166 27ft 0kts

Navigation Log

Ident Type
Flight plan parsing failed, navigation log unavailable